createdAt,value
2018-03-25T00:00:13.259Z,30.85
2018-03-25T00:00:44.832Z,32.75
2018-03-25T00:01:16.480Z,33.63
2018-03-25T00:01:48.144Z,31.80
2018-03-25T00:02:19.784Z,34.33
2018-03-25T00:02:51.425Z,34.45
2018-03-25T00:03:23.067Z,33.38
2018-03-25T00:03:54.700Z,37.67
2018-03-25T00:04:26.343Z,39.25
2018-03-25T00:04:57.981Z,37.88
2018-03-25T00:05:29.616Z,38.28
2018-03-25T00:06:01.251Z,37.33
2018-03-25T00:06:32.868Z,35.42
2018-03-25T00:07:04.510Z,36.15
2018-03-25T00:07:36.152Z,37.85
2018-03-25T00:08:07.797Z,39.20
2018-03-25T00:08:39.449Z,40.17
2018-03-25T00:09:11.126Z,38.15
2018-03-25T00:09:42.746Z,40.30
2018-03-25T00:10:14.385Z,38.17
2018-03-25T00:10:46.013Z,39.72
2018-03-25T00:11:17.665Z,37.03
2018-03-25T00:11:49.289Z,38.70
2018-03-25T00:12:20.908Z,38.65
2018-03-25T00:12:52.552Z,39.20
2018-03-25T00:13:24.207Z,37.92
2018-03-25T00:13:55.800Z,36.47
2018-03-25T00:14:27.436Z,38.38
2018-03-25T00:14:59.077Z,37.58
2018-03-25T00:15:30.693Z,39.88
2018-03-25T00:16:02.340Z,37.58
2018-03-25T00:16:33.972Z,39.33
2018-03-25T00:17:05.597Z,37.63
2018-03-25T00:17:37.242Z,38.60
2018-03-25T00:18:08.894Z,36.45
2018-03-25T00:18:40.497Z,39.78
2018-03-25T00:19:12.137Z,38.78
2018-03-25T00:19:43.814Z,36.72
2018-03-25T00:20:15.434Z,38.58
2018-03-25T00:20:47.072Z,39.22
2018-03-25T00:21:18.696Z,38.35
2018-03-25T00:21:50.312Z,38.50
2018-03-25T00:22:21.933Z,36.92
2018-03-25T00:22:53.578Z,36.83
2018-03-25T00:23:25.184Z,35.58
2018-03-25T00:23:56.822Z,37.60
2018-03-25T00:24:28.456Z,36.67
2018-03-25T00:25:00.083Z,35.67
2018-03-25T00:25:31.740Z,37.55
2018-03-25T00:26:03.412Z,36.92
2018-03-25T00:26:35.024Z,36.35
2018-03-25T00:27:06.668Z,34.00
2018-03-25T00:27:38.297Z,33.03
2018-03-25T00:28:09.923Z,33.70
2018-03-25T00:28:41.554Z,34.70
2018-03-25T00:29:13.223Z,32.80
2018-03-25T00:29:44.866Z,33.65
2018-03-25T00:30:16.513Z,32.22
2018-03-25T00:30:48.172Z,31.90
2018-03-25T00:31:19.808Z,31.42
2018-03-25T00:31:51.436Z,33.75
2018-03-25T00:32:23.051Z,34.00
2018-03-25T00:32:54.656Z,32.40
2018-03-25T00:33:26.288Z,32.83
2018-03-25T00:33:57.919Z,34.58
2018-03-25T00:34:29.572Z,31.90
2018-03-25T00:35:01.194Z,32.42
2018-03-25T00:35:32.820Z,32.08
2018-03-25T00:36:04.468Z,30.77
2018-03-25T00:36:36.090Z,31.73
2018-03-25T00:37:07.732Z,31.83
2018-03-25T00:37:39.350Z,34.60
2018-03-25T00:38:10.968Z,33.20
2018-03-25T00:38:42.611Z,34.70
2018-03-25T00:39:14.228Z,34.90
2018-03-25T00:39:45.877Z,34.10
2018-03-25T00:40:17.506Z,34.35
2018-03-25T00:40:49.164Z,34.63
2018-03-25T00:41:20.801Z,33.78
2018-03-25T00:41:52.592Z,36.55
2018-03-25T00:42:24.231Z,33.03
2018-03-25T00:42:55.858Z,37.10
2018-03-25T00:43:27.498Z,35.58
2018-03-25T00:43:59.122Z,37.85
2018-03-25T00:44:30.762Z,36.60
2018-03-25T00:45:02.424Z,36.10
2018-03-25T00:45:34.042Z,36.63
2018-03-25T00:46:05.655Z,36.40
2018-03-25T00:46:37.278Z,34.75
2018-03-25T00:47:08.902Z,35.25
2018-03-25T00:47:40.523Z,34.35
2018-03-25T00:48:12.164Z,32.33
2018-03-25T00:48:43.786Z,33.05
2018-03-25T00:49:15.430Z,36.42
2018-03-25T00:49:47.061Z,36.83
2018-03-25T00:50:18.698Z,34.28
2018-03-25T00:50:50.334Z,33.60
2018-03-25T00:51:21.976Z,34.33
2018-03-25T00:51:53.594Z,35.45
2018-03-25T00:52:25.214Z,32.97
2018-03-25T00:52:56.842Z,35.70
2018-03-25T00:53:28.498Z,34.17
2018-03-25T00:54:00.116Z,33.13
2018-03-25T00:54:31.728Z,34.75
2018-03-25T00:55:03.378Z,32.00
2018-03-25T00:55:34.994Z,33.10
2018-03-25T00:56:06.640Z,33.67
2018-03-25T00:56:38.266Z,32.13
2018-03-25T00:57:09.898Z,32.97
2018-03-25T00:57:41.516Z,33.53
2018-03-25T00:58:13.158Z,32.72
2018-03-25T00:58:44.806Z,33.05
2018-03-25T00:59:16.426Z,32.03
2018-03-25T00:59:48.028Z,33.63
2018-03-25T01:00:19.716Z,33.40
2018-03-25T01:00:51.367Z,35.03
2018-03-25T01:01:23.051Z,34.40
2018-03-25T01:01:54.762Z,35.13
2018-03-25T01:02:26.389Z,36.03
2018-03-25T01:02:58.030Z,35.33
2018-03-25T01:03:29.658Z,36.95
2018-03-25T01:04:01.304Z,37.22
2018-03-25T01:04:32.962Z,36.80
2018-03-25T01:05:04.630Z,35.35
2018-03-25T01:05:36.288Z,33.65
2018-03-25T01:06:07.950Z,36.83
2018-03-25T01:06:39.615Z,36.45
2018-03-25T01:07:11.282Z,37.55
2018-03-25T01:07:42.975Z,35.15
2018-03-25T01:08:14.558Z,38.42
2018-03-25T01:08:46.214Z,40.10
2018-03-25T01:09:17.858Z,37.42
2018-03-25T01:09:49.514Z,39.60
2018-03-25T01:10:21.147Z,41.97
2018-03-25T01:10:52.812Z,38.85
2018-03-25T01:11:24.435Z,39.58
2018-03-25T01:11:56.118Z,38.70
2018-03-25T01:12:27.812Z,40.42
2018-03-25T01:12:59.444Z,41.05
2018-03-25T01:13:31.098Z,41.03
2018-03-25T01:14:02.790Z,39.72
2018-03-25T01:14:34.408Z,41.75
2018-03-25T01:15:06.070Z,41.22
2018-03-25T01:16:09.746Z,41.85
2018-03-25T01:16:41.374Z,41.03
2018-03-25T01:17:13.019Z,38.85
2018-03-25T01:17:44.708Z,44.78
2018-03-25T01:18:16.335Z,40.60
2018-03-25T01:18:48.000Z,43.25
2018-03-25T01:19:19.679Z,44.92
2018-03-25T01:19:51.316Z,43.50
2018-03-25T01:20:22.975Z,46.15
2018-03-25T01:20:54.622Z,43.97
2018-03-25T01:21:26.249Z,46.03
2018-03-25T01:21:57.884Z,46.35
2018-03-25T01:22:29.544Z,43.35
2018-03-25T01:23:01.164Z,45.17
2018-03-25T01:23:32.834Z,44.40
2018-03-25T01:24:04.516Z,42.25
2018-03-25T01:24:36.202Z,42.22
2018-03-25T01:25:07.836Z,43.13
2018-03-25T01:25:39.470Z,41.58
2018-03-25T01:26:11.104Z,44.85
2018-03-25T01:26:42.747Z,44.05
2018-03-25T01:27:14.372Z,41.22
2018-03-25T01:27:46.014Z,43.72
2018-03-25T01:28:17.660Z,41.65
2018-03-25T01:28:49.308Z,44.00
2018-03-25T01:29:20.952Z,43.08
2018-03-25T01:29:52.574Z,43.38
2018-03-25T01:30:24.222Z,38.63
2018-03-25T01:30:55.890Z,38.78
2018-03-25T01:31:27.519Z,40.10
2018-03-25T01:31:59.136Z,38.80
2018-03-25T01:32:30.804Z,40.75
2018-03-25T01:33:02.438Z,38.92
2018-03-25T01:33:34.099Z,41.28
2018-03-25T01:34:05.728Z,38.40
2018-03-25T01:34:37.374Z,43.35
2018-03-25T01:35:09.006Z,42.33
2018-03-25T01:35:40.628Z,40.08
2018-03-25T01:36:12.297Z,38.13
2018-03-25T01:36:43.938Z,39.58
2018-03-25T01:37:15.553Z,38.17
2018-03-25T01:37:47.183Z,40.85
2018-03-25T01:38:18.816Z,41.60
2018-03-25T01:38:50.460Z,43.08
2018-03-25T01:39:22.102Z,41.17
2018-03-25T01:39:53.740Z,42.95
2018-03-25T01:40:25.365Z,43.35
2018-03-25T01:40:57.016Z,39.45
2018-03-25T01:41:28.644Z,41.08
2018-03-25T01:42:00.265Z,40.28
2018-03-25T01:42:31.905Z,39.60
2018-03-25T01:43:03.536Z,41.45
2018-03-25T01:43:35.176Z,39.08
2018-03-25T01:44:06.795Z,40.55
2018-03-25T01:44:38.426Z,42.10
2018-03-25T01:45:10.042Z,39.50
2018-03-25T01:45:41.679Z,39.58
2018-03-25T01:46:13.302Z,40.55
2018-03-25T01:46:44.914Z,38.42
2018-03-25T01:47:16.540Z,38.60
2018-03-25T01:47:48.176Z,41.10
2018-03-25T01:48:19.824Z,38.92
2018-03-25T01:48:51.444Z,39.25
2018-03-25T01:49:23.078Z,39.17
2018-03-25T01:49:54.700Z,39.13
2018-03-25T01:50:26.343Z,39.70
2018-03-25T01:50:57.960Z,40.00
2018-03-25T01:51:29.572Z,40.85
2018-03-25T01:52:01.212Z,39.45
2018-03-25T01:52:32.831Z,38.25
2018-03-25T01:53:04.477Z,38.55
2018-03-25T01:53:36.097Z,39.42
2018-03-25T01:54:07.734Z,39.85
2018-03-25T01:54:39.407Z,39.78
2018-03-25T01:55:11.032Z,39.25
2018-03-25T01:55:42.657Z,38.55
2018-03-25T01:56:14.300Z,40.28
2018-03-25T01:56:45.926Z,38.67
2018-03-25T01:57:17.558Z,39.10
2018-03-25T01:57:49.184Z,41.72
2018-03-25T01:58:20.812Z,37.70
2018-03-25T01:58:52.458Z,38.30
2018-03-25T01:59:24.084Z,40.65
2018-03-25T01:59:55.704Z,41.67
2018-03-25T02:00:27.333Z,40.15
2018-03-25T02:00:58.960Z,41.47
2018-03-25T02:01:30.586Z,41.25
2018-03-25T02:02:02.254Z,42.92
2018-03-25T02:02:33.918Z,42.00
2018-03-25T02:03:05.536Z,44.50
2018-03-25T02:03:37.162Z,38.92
2018-03-25T02:04:08.800Z,44.05
2018-03-25T02:04:40.452Z,41.85
2018-03-25T02:05:12.141Z,43.90
2018-03-25T02:05:43.840Z,42.60
2018-03-25T02:06:15.464Z,45.40
2018-03-25T02:06:47.152Z,42.72
2018-03-25T02:07:18.786Z,45.40
2018-03-25T02:07:50.451Z,42.65
2018-03-25T02:08:22.094Z,43.30
2018-03-25T02:08:53.724Z,41.78
2018-03-25T02:09:25.394Z,41.63
2018-03-25T02:09:56.997Z,42.95
2018-03-25T02:10:28.628Z,44.35
2018-03-25T02:11:00.290Z,42.85
2018-03-25T02:11:31.945Z,43.87
2018-03-25T02:12:03.631Z,42.78
2018-03-25T02:12:35.252Z,44.20
2018-03-25T02:13:06.884Z,39.45
2018-03-25T02:13:38.512Z,41.37
2018-03-25T02:14:10.142Z,43.00
2018-03-25T02:14:41.775Z,42.70
2018-03-25T02:15:13.406Z,44.05
2018-03-25T02:15:45.042Z,44.25
2018-03-25T02:16:16.674Z,44.70
2018-03-25T02:16:48.346Z,43.55
2018-03-25T02:17:19.991Z,44.28
2018-03-25T02:17:51.720Z,44.35
2018-03-25T02:18:23.416Z,46.05
2018-03-25T02:18:55.037Z,46.80
2018-03-25T02:19:26.690Z,43.72
2018-03-25T02:19:58.304Z,44.72
2018-03-25T02:20:29.932Z,44.13
2018-03-25T02:21:01.570Z,50.20
2018-03-25T02:21:33.190Z,45.05
2018-03-25T02:22:04.892Z,46.05
2018-03-25T02:22:36.546Z,48.58
2018-03-25T02:23:08.182Z,45.00
2018-03-25T02:23:39.840Z,47.40
2018-03-25T02:24:11.489Z,46.08
2018-03-25T02:24:43.128Z,45.72
2018-03-25T02:25:14.751Z,47.95
2018-03-25T02:25:46.387Z,46.78
2018-03-25T02:26:18.012Z,48.20
2018-03-25T02:26:49.648Z,46.85
2018-03-25T02:27:21.274Z,42.85
2018-03-25T02:27:52.944Z,46.17
2018-03-25T02:28:24.530Z,50.60
2018-03-25T02:28:56.222Z,48.92
2018-03-25T02:29:27.840Z,46.55
2018-03-25T02:29:59.469Z,50.05
2018-03-25T02:30:31.108Z,47.62
2018-03-25T02:31:02.798Z,52.62
2018-03-25T02:31:34.435Z,46.95
2018-03-25T02:32:06.091Z,52.03
2018-03-25T02:32:37.782Z,50.53
2018-03-25T02:33:09.432Z,57.42
2018-03-25T02:33:41.118Z,57.05
2018-03-25T02:34:12.708Z,56.53
2018-03-25T02:34:44.352Z,53.80
2018-03-25T02:35:15.966Z,53.83
2018-03-25T02:35:47.600Z,51.67
2018-03-25T02:36:19.290Z,52.17
2018-03-25T02:36:50.912Z,58.78
2018-03-25T02:37:22.552Z,54.78
2018-03-25T02:37:54.157Z,50.88
2018-03-25T02:38:25.805Z,48.63
2018-03-25T02:38:57.442Z,52.83
2018-03-25T02:39:29.114Z,52.53
2018-03-25T02:40:00.708Z,51.88
2018-03-25T02:40:32.369Z,51.63
2018-03-25T02:41:04.023Z,50.22
2018-03-25T02:41:35.675Z,50.45
2018-03-25T02:42:07.349Z,52.95
2018-03-25T02:42:39.004Z,50.20
2018-03-25T02:43:10.660Z,52.30
2018-03-25T02:43:42.294Z,51.95
2018-03-25T02:44:13.938Z,53.33
2018-03-25T02:44:45.576Z,52.40
2018-03-25T02:45:17.224Z,54.10
2018-03-25T02:45:48.877Z,53.28
2018-03-25T02:46:20.516Z,55.53
2018-03-25T02:46:52.176Z,58.47
2018-03-25T02:47:23.824Z,56.30
2018-03-25T02:47:55.489Z,54.10
2018-03-25T02:48:27.127Z,54.38
2018-03-25T02:48:58.774Z,55.85
2018-03-25T02:49:30.386Z,58.50
2018-03-25T02:50:02.124Z,56.47
2018-03-25T02:50:33.740Z,54.92
2018-03-25T02:51:05.420Z,53.35
2018-03-25T02:51:37.046Z,55.28
2018-03-25T02:52:08.674Z,52.78
2018-03-25T02:52:40.307Z,53.72
2018-03-25T02:53:11.947Z,48.15
2018-03-25T02:53:43.572Z,50.70
2018-03-25T02:54:15.204Z,49.58
2018-03-25T02:54:46.861Z,52.15
2018-03-25T02:55:18.481Z,50.20
2018-03-25T02:55:50.116Z,49.58
2018-03-25T02:56:21.758Z,52.53
2018-03-25T02:56:53.381Z,50.35
2018-03-25T02:57:25.050Z,51.60
2018-03-25T02:57:56.679Z,50.20
2018-03-25T02:58:28.302Z,53.28
2018-03-25T02:58:59.911Z,48.97
2018-03-25T02:59:31.555Z,46.60
2018-03-25T03:00:03.221Z,46.12
2018-03-25T03:00:34.868Z,48.70
2018-03-25T03:01:06.509Z,47.60
2018-03-25T03:01:38.124Z,50.35
2018-03-25T03:02:09.772Z,49.53
2018-03-25T03:02:41.400Z,46.05
2018-03-25T03:03:13.046Z,47.88
2018-03-25T03:03:44.652Z,50.12
2018-03-25T03:04:16.280Z,48.28
2018-03-25T03:04:47.896Z,49.70
2018-03-25T03:05:19.533Z,52.45
2018-03-25T03:05:51.165Z,49.67
2018-03-25T03:06:22.832Z,52.42
2018-03-25T03:06:54.461Z,47.42
2018-03-25T03:07:26.101Z,49.40
2018-03-25T03:07:57.731Z,50.47
2018-03-25T03:08:29.370Z,47.60
2018-03-25T03:09:01.000Z,46.33
2018-03-25T03:09:32.623Z,46.60
2018-03-25T03:10:04.304Z,45.97
2018-03-25T03:10:35.921Z,44.17
2018-03-25T03:11:07.581Z,43.78
2018-03-25T03:11:39.214Z,43.85
2018-03-25T03:12:10.854Z,46.97
2018-03-25T03:12:42.584Z,44.85
2018-03-25T03:13:14.225Z,42.00
2018-03-25T03:13:45.886Z,44.90
2018-03-25T03:14:17.550Z,44.05
2018-03-25T03:14:49.185Z,45.95
2018-03-25T03:15:20.850Z,43.47
2018-03-25T03:15:52.489Z,42.75
2018-03-25T03:16:24.106Z,44.60
2018-03-25T03:16:55.738Z,43.13
2018-03-25T03:17:27.391Z,47.58
2018-03-25T03:17:59.022Z,44.03
2018-03-25T03:18:30.660Z,46.33
2018-03-25T03:19:02.306Z,45.63
2018-03-25T03:19:33.934Z,47.33
2018-03-25T03:20:05.601Z,46.10
2018-03-25T03:20:37.226Z,44.08
2018-03-25T03:21:08.854Z,45.35
2018-03-25T03:21:40.508Z,44.53
2018-03-25T03:22:12.148Z,43.58
2018-03-25T03:22:43.779Z,43.25
2018-03-25T03:23:15.416Z,43.17
2018-03-25T03:23:47.052Z,39.28
2018-03-25T03:24:18.708Z,42.83
2018-03-25T03:24:50.352Z,44.80
2018-03-25T03:25:21.993Z,46.92
2018-03-25T03:25:53.626Z,44.13
2018-03-25T03:26:25.264Z,44.13
2018-03-25T03:26:56.905Z,44.45
2018-03-25T03:27:28.528Z,44.33
2018-03-25T03:28:01.068Z,42.67
2018-03-25T03:28:32.706Z,44.95
2018-03-25T03:29:04.340Z,44.78
2018-03-25T03:29:35.958Z,43.67
2018-03-25T03:30:07.575Z,43.38
2018-03-25T03:30:39.201Z,41.67
2018-03-25T03:31:10.856Z,44.40
2018-03-25T03:31:42.505Z,43.80
2018-03-25T03:32:14.119Z,42.72
2018-03-25T03:32:45.780Z,44.10
2018-03-25T03:33:17.406Z,44.67
2018-03-25T03:33:49.052Z,43.03
2018-03-25T03:34:20.680Z,45.08
2018-03-25T03:34:52.330Z,43.95
2018-03-25T03:35:23.978Z,45.50
2018-03-25T03:35:55.628Z,43.80
2018-03-25T03:36:27.284Z,43.92
2018-03-25T03:36:58.910Z,42.65
2018-03-25T03:37:30.542Z,44.78
2018-03-25T03:38:02.152Z,42.70
2018-03-25T03:38:33.805Z,43.75
2018-03-25T03:39:05.450Z,44.45
2018-03-25T03:39:37.107Z,45.70
2018-03-25T03:40:08.762Z,44.92
2018-03-25T03:40:40.374Z,43.28
2018-03-25T03:41:12.006Z,45.97
2018-03-25T03:41:43.652Z,45.30
2018-03-25T03:42:15.281Z,43.92
2018-03-25T03:42:46.898Z,43.38
2018-03-25T03:43:18.548Z,41.63
2018-03-25T03:43:50.186Z,43.72
2018-03-25T03:44:21.793Z,42.42
2018-03-25T03:44:53.439Z,42.15
2018-03-25T03:45:25.078Z,42.50
2018-03-25T03:45:56.715Z,42.72
2018-03-25T03:46:28.326Z,42.85
2018-03-25T03:46:59.970Z,42.60
2018-03-25T03:47:31.594Z,44.72
2018-03-25T03:48:03.234Z,42.60
2018-03-25T03:48:34.862Z,44.92
2018-03-25T03:49:06.496Z,44.13
2018-03-25T03:49:38.119Z,44.20
2018-03-25T03:50:09.778Z,43.47
2018-03-25T03:50:41.396Z,41.25
2018-03-25T03:51:13.042Z,41.22
2018-03-25T03:51:44.662Z,43.53
2018-03-25T03:52:16.288Z,41.85
2018-03-25T03:52:47.914Z,42.90
2018-03-25T03:53:19.540Z,44.25
2018-03-25T03:53:51.148Z,44.92
2018-03-25T03:54:22.764Z,45.55
2018-03-25T03:54:54.380Z,43.87
2018-03-25T03:55:26.024Z,44.05
2018-03-25T03:55:57.672Z,43.75
2018-03-25T03:56:29.312Z,42.08
2018-03-25T03:57:00.970Z,42.97
2018-03-25T03:57:32.602Z,42.47
2018-03-25T03:58:04.227Z,43.05
2018-03-25T03:58:35.846Z,40.67
2018-03-25T03:59:07.474Z,42.15
2018-03-25T03:59:39.098Z,44.20
2018-03-25T04:00:10.752Z,43.50
2018-03-25T04:00:42.388Z,42.22
2018-03-25T04:01:14.018Z,45.42
2018-03-25T04:01:45.650Z,42.35
2018-03-25T04:02:17.285Z,43.50
2018-03-25T04:02:48.898Z,41.05
2018-03-25T04:03:20.525Z,42.90
2018-03-25T04:03:52.150Z,43.65
2018-03-25T04:04:23.774Z,41.70
2018-03-25T04:04:55.390Z,41.88
2018-03-25T04:05:27.038Z,40.97
2018-03-25T04:05:58.684Z,42.35
2018-03-25T04:06:30.336Z,40.10
2018-03-25T04:07:01.948Z,42.95
2018-03-25T04:07:33.567Z,42.85
2018-03-25T04:08:05.191Z,42.50
2018-03-25T04:08:36.816Z,41.20
2018-03-25T04:09:08.482Z,40.70
2018-03-25T04:09:40.067Z,41.17
2018-03-25T04:10:11.696Z,41.80
2018-03-25T04:10:43.324Z,41.67
2018-03-25T04:11:14.951Z,41.58
2018-03-25T04:11:46.556Z,39.92
2018-03-25T04:12:18.192Z,41.85
2018-03-25T04:12:49.816Z,40.78
2018-03-25T04:13:21.428Z,41.80
2018-03-25T04:13:53.047Z,43.17
2018-03-25T04:14:24.682Z,41.83
2018-03-25T04:14:56.300Z,41.75
2018-03-25T04:15:27.911Z,41.47
2018-03-25T04:15:59.551Z,40.80
2018-03-25T04:16:31.208Z,41.20
2018-03-25T04:17:02.847Z,41.45
2018-03-25T04:17:34.486Z,40.83
2018-03-25T04:18:06.116Z,42.28
2018-03-25T04:18:37.752Z,40.97
2018-03-25T04:19:09.373Z,41.60
2018-03-25T04:19:40.995Z,41.00
2018-03-25T04:20:12.626Z,42.95
2018-03-25T04:20:44.250Z,41.10
2018-03-25T04:21:15.880Z,41.88
2018-03-25T04:21:47.539Z,40.67
2018-03-25T04:22:19.197Z,40.00
2018-03-25T04:22:50.824Z,41.80
2018-03-25T04:23:22.450Z,41.53
2018-03-25T04:23:54.072Z,39.58
2018-03-25T04:24:25.708Z,40.67
2018-03-25T04:24:57.341Z,40.20
2018-03-25T04:25:28.969Z,40.47
2018-03-25T04:26:00.643Z,39.00
2018-03-25T04:26:32.281Z,39.25
2018-03-25T04:27:03.936Z,40.85
2018-03-25T04:27:35.564Z,40.17
2018-03-25T04:28:07.178Z,40.40
2018-03-25T04:28:38.817Z,40.60
2018-03-25T04:29:10.466Z,41.25
2018-03-25T04:29:42.092Z,40.42
2018-03-25T04:30:13.728Z,40.47
2018-03-25T04:30:45.348Z,42.17
2018-03-25T04:31:17.021Z,41.60
2018-03-25T04:31:48.637Z,40.80
2018-03-25T04:32:20.282Z,40.90
2018-03-25T04:32:51.939Z,40.35
2018-03-25T04:33:23.539Z,38.63
2018-03-25T04:33:55.160Z,40.80
2018-03-25T04:34:26.792Z,40.92
2018-03-25T04:34:58.443Z,40.22
2018-03-25T04:35:30.060Z,39.92
2018-03-25T04:36:01.691Z,38.80
2018-03-25T04:36:33.322Z,39.05
2018-03-25T04:37:04.944Z,36.80
2018-03-25T04:37:36.564Z,40.33
2018-03-25T04:38:08.200Z,39.72
2018-03-25T04:38:39.833Z,39.13
2018-03-25T04:39:11.464Z,40.80
2018-03-25T04:39:43.110Z,43.03
2018-03-25T04:40:14.732Z,42.30
2018-03-25T04:40:46.396Z,42.28
2018-03-25T04:41:18.044Z,41.72
2018-03-25T04:41:49.660Z,40.12
2018-03-25T04:42:21.289Z,40.67
2018-03-25T04:42:52.938Z,39.13
2018-03-25T04:43:24.575Z,39.42
2018-03-25T04:43:56.204Z,40.10
2018-03-25T04:44:27.830Z,40.22
2018-03-25T04:44:59.463Z,39.58
2018-03-25T04:45:31.082Z,38.92
2018-03-25T04:46:02.739Z,38.00
2018-03-25T04:46:34.364Z,38.40
2018-03-25T04:47:05.999Z,39.70
2018-03-25T04:47:37.673Z,36.15
2018-03-25T04:48:09.326Z,39.42
2018-03-25T04:48:40.971Z,41.35
2018-03-25T04:49:12.604Z,44.30
2018-03-25T04:49:44.262Z,42.00
2018-03-25T04:50:15.888Z,42.72
2018-03-25T04:50:47.505Z,42.95
2018-03-25T04:51:19.136Z,45.65
2018-03-25T04:51:50.759Z,43.15
2018-03-25T04:52:22.371Z,44.15
2018-03-25T04:52:53.991Z,43.15
2018-03-25T04:53:25.618Z,45.35
2018-03-25T04:53:57.263Z,45.90
2018-03-25T04:54:28.898Z,44.50
2018-03-25T04:55:00.528Z,47.08
2018-03-25T04:55:32.172Z,45.40
2018-03-25T04:56:03.810Z,47.47
2018-03-25T04:56:35.433Z,49.40
2018-03-25T04:57:07.058Z,49.72
2018-03-25T04:57:38.715Z,46.75
2018-03-25T04:58:10.350Z,48.22
2018-03-25T04:58:42.022Z,46.70
2018-03-25T04:59:13.645Z,46.53
2018-03-25T04:59:45.264Z,47.75
2018-03-25T05:00:16.890Z,46.60
2018-03-25T05:00:48.533Z,49.13
2018-03-25T05:01:20.184Z,49.10
2018-03-25T05:01:51.814Z,49.03
2018-03-25T05:02:23.435Z,49.85
2018-03-25T05:02:55.064Z,48.10
2018-03-25T05:03:26.697Z,45.30
2018-03-25T05:03:58.321Z,49.35
2018-03-25T05:04:29.967Z,45.85
2018-03-25T05:05:01.598Z,50.03
2018-03-25T05:05:33.266Z,48.95
2018-03-25T05:06:04.889Z,48.05
2018-03-25T05:06:36.524Z,45.97
2018-03-25T05:07:08.161Z,49.35
2018-03-25T05:07:39.789Z,50.65
2018-03-25T05:08:11.419Z,50.12
2018-03-25T05:08:43.066Z,52.35
2018-03-25T05:09:14.700Z,52.88
2018-03-25T05:09:46.341Z,46.67
2018-03-25T05:10:17.986Z,48.85
2018-03-25T05:10:49.627Z,49.42
2018-03-25T05:11:21.260Z,46.67
2018-03-25T05:11:53.160Z,46.60
2018-03-25T05:12:24.792Z,44.97
2018-03-25T05:12:56.412Z,45.63
2018-03-25T05:13:28.030Z,44.53
2018-03-25T05:13:59.658Z,45.95
2018-03-25T05:14:31.290Z,44.72
2018-03-25T05:15:02.979Z,44.38
2018-03-25T05:15:34.598Z,47.80
2018-03-25T05:16:06.233Z,46.10
2018-03-25T05:16:37.886Z,45.40
2018-03-25T05:17:09.520Z,48.55
2018-03-25T05:17:41.141Z,44.50
2018-03-25T05:18:12.762Z,41.45
2018-03-25T05:18:44.389Z,45.40
2018-03-25T05:19:16.024Z,43.50
2018-03-25T05:19:47.657Z,46.17
2018-03-25T05:20:19.280Z,44.38
2018-03-25T05:20:50.929Z,43.83
2018-03-25T05:21:22.578Z,44.78
2018-03-25T05:21:54.191Z,42.13
2018-03-25T05:22:25.819Z,44.47
2018-03-25T05:22:57.451Z,42.78
2018-03-25T05:23:29.076Z,40.72
2018-03-25T05:24:00.707Z,44.17
2018-03-25T05:24:32.382Z,42.72
2018-03-25T05:25:04.057Z,47.75
2018-03-25T05:25:35.710Z,44.92
2018-03-25T05:26:07.345Z,43.97
2018-03-25T05:26:38.971Z,45.63
2018-03-25T05:27:10.608Z,44.80
2018-03-25T05:27:42.257Z,43.67
2018-03-25T05:28:13.894Z,43.63
2018-03-25T05:28:45.521Z,41.78
2018-03-25T05:29:17.158Z,42.65
2018-03-25T05:29:48.798Z,44.00
2018-03-25T05:30:20.417Z,42.38
2018-03-25T05:30:52.051Z,43.75
2018-03-25T05:31:23.696Z,44.60
2018-03-25T05:31:55.332Z,42.85
2018-03-25T05:32:26.953Z,44.08
2018-03-25T05:32:58.583Z,45.17
2018-03-25T05:33:30.215Z,42.95
2018-03-25T05:34:01.833Z,44.65
2018-03-25T05:34:33.459Z,44.10
2018-03-25T05:35:05.112Z,45.75
2018-03-25T05:35:36.749Z,41.97
2018-03-25T05:36:08.406Z,44.47
2018-03-25T05:36:40.052Z,44.97
2018-03-25T05:37:11.682Z,46.13
2018-03-25T05:37:43.307Z,45.30
2018-03-25T05:38:14.955Z,43.25
2018-03-25T05:38:46.598Z,43.67
2018-03-25T05:39:18.214Z,44.65
2018-03-25T05:39:49.863Z,47.25
2018-03-25T05:40:21.494Z,44.88
2018-03-25T05:40:53.141Z,48.28
2018-03-25T05:41:24.816Z,46.60
2018-03-25T05:41:56.446Z,46.67
2018-03-25T05:42:28.089Z,47.30
2018-03-25T05:42:59.748Z,48.50
2018-03-25T05:43:31.379Z,46.65
2018-03-25T05:44:03.030Z,46.28
2018-03-25T05:44:34.643Z,47.72
2018-03-25T05:45:06.270Z,47.45
2018-03-25T05:45:37.917Z,48.25
2018-03-25T05:46:09.552Z,49.55
2018-03-25T05:46:41.215Z,46.17
2018-03-25T05:47:12.897Z,47.97
2018-03-25T05:47:44.538Z,48.92
2018-03-25T05:48:16.201Z,46.95
2018-03-25T05:48:47.833Z,46.20
2018-03-25T05:49:19.475Z,46.00
2018-03-25T05:49:51.097Z,48.42
2018-03-25T05:50:22.714Z,46.80
2018-03-25T05:50:54.347Z,46.75
2018-03-25T05:51:25.967Z,49.28
2018-03-25T05:51:57.604Z,48.60
2018-03-25T05:52:29.227Z,47.35
2018-03-25T05:53:00.851Z,46.90
2018-03-25T05:53:32.507Z,47.80
2018-03-25T05:54:04.171Z,48.72
2018-03-25T05:54:35.780Z,48.13
2018-03-25T05:55:07.437Z,46.95
2018-03-25T05:55:39.089Z,49.45
2018-03-25T05:56:10.745Z,48.05
2018-03-25T05:56:42.399Z,47.03
2018-03-25T05:57:14.040Z,50.03
2018-03-25T05:57:45.677Z,47.42
2018-03-25T05:58:17.298Z,48.08
2018-03-25T05:58:48.926Z,49.00
2018-03-25T05:59:20.543Z,47.20
2018-03-25T05:59:52.179Z,48.00
2018-03-25T06:00:23.813Z,47.50
2018-03-25T06:00:55.460Z,48.03
2018-03-25T06:01:27.083Z,44.42
2018-03-25T06:01:58.727Z,48.67
2018-03-25T06:02:30.383Z,47.30
2018-03-25T06:03:02.035Z,47.90
2018-03-25T06:03:33.656Z,45.85
2018-03-25T06:04:05.305Z,49.35
2018-03-25T06:04:36.931Z,46.13
2018-03-25T06:05:08.603Z,46.30
2018-03-25T06:05:40.247Z,50.03
2018-03-25T06:06:11.873Z,47.10
2018-03-25T06:06:43.503Z,48.38
2018-03-25T06:07:15.146Z,51.30
2018-03-25T06:07:46.811Z,45.65
2018-03-25T06:08:18.419Z,50.22
2018-03-25T06:08:50.069Z,48.22
2018-03-25T06:09:21.701Z,49.92
2018-03-25T06:09:53.355Z,45.70
2018-03-25T06:10:25.026Z,47.53
2018-03-25T06:10:56.650Z,47.75
2018-03-25T06:11:28.295Z,47.88
2018-03-25T06:11:59.935Z,45.70
2018-03-25T06:12:31.578Z,45.22
2018-03-25T06:13:03.235Z,48.92
2018-03-25T06:13:34.883Z,46.30
2018-03-25T06:14:06.545Z,49.42
2018-03-25T06:14:38.189Z,48.65
2018-03-25T06:15:09.813Z,48.10
2018-03-25T06:15:41.435Z,48.17
2018-03-25T06:16:13.068Z,47.55
2018-03-25T06:16:44.710Z,48.15
2018-03-25T06:17:16.341Z,48.70
2018-03-25T06:17:47.968Z,48.80
2018-03-25T06:18:19.626Z,48.60
2018-03-25T06:18:51.259Z,49.78
2018-03-25T06:19:22.924Z,49.92
2018-03-25T06:19:54.552Z,51.30
2018-03-25T06:20:26.193Z,48.50
2018-03-25T06:20:57.818Z,48.30
2018-03-25T06:21:29.450Z,49.67
2018-03-25T06:22:01.089Z,53.00
2018-03-25T06:22:32.739Z,52.90
2018-03-25T06:23:04.427Z,48.28
2018-03-25T06:23:36.053Z,49.60
2018-03-25T06:24:07.989Z,47.95
2018-03-25T06:24:39.619Z,47.42
2018-03-25T06:25:11.273Z,49.45
2018-03-25T06:25:42.895Z,48.28
2018-03-25T06:26:14.564Z,51.37
2018-03-25T06:26:46.203Z,52.95
2018-03-25T06:27:17.827Z,48.70
2018-03-25T06:27:49.479Z,49.75
2018-03-25T06:28:21.121Z,52.30
2018-03-25T06:28:52.765Z,47.72
2018-03-25T06:29:24.413Z,48.83
2018-03-25T06:29:56.053Z,49.30
2018-03-25T06:30:27.700Z,48.63
2018-03-25T06:30:59.342Z,54.78
2018-03-25T06:31:31.015Z,53.10
2018-03-25T06:32:02.701Z,54.03
2018-03-25T06:32:34.341Z,48.28
2018-03-25T06:33:05.969Z,47.17
2018-03-25T06:33:37.594Z,49.28
2018-03-25T06:34:09.246Z,51.33
2018-03-25T06:34:40.901Z,52.62
2018-03-25T06:35:12.531Z,50.70
2018-03-25T06:35:44.169Z,51.22
2018-03-25T06:36:15.787Z,49.92
2018-03-25T06:36:47.417Z,50.00
2018-03-25T06:37:19.080Z,51.15
2018-03-25T06:37:50.713Z,52.05
2018-03-25T06:38:22.365Z,50.75
2018-03-25T06:38:53.992Z,51.37
2018-03-25T06:39:25.617Z,53.65
2018-03-25T06:39:57.247Z,48.40
2018-03-25T06:40:28.869Z,50.47
2018-03-25T06:41:00.515Z,51.03
2018-03-25T06:41:32.147Z,44.72
2018-03-25T06:42:03.827Z,48.92
2018-03-25T06:42:35.487Z,49.53
2018-03-25T06:43:07.134Z,51.85
2018-03-25T06:43:38.737Z,52.08
2018-03-25T06:44:10.399Z,51.88
2018-03-25T06:44:42.073Z,52.53
2018-03-25T06:45:13.722Z,50.55
2018-03-25T06:45:45.335Z,52.53
2018-03-25T06:46:16.985Z,50.90
2018-03-25T06:46:48.635Z,51.03
2018-03-25T06:47:20.297Z,47.42
2018-03-25T06:47:51.919Z,50.33